Time;durP1;ratioP1;P1;durP2;ratioP2;P2;SDS_P1;SDS_P2;PMS_P1;PMS_P2;Temp;Humidity;BMP_temperature;BMP_pressure;BME280_temperature;BME280_humidity;BME280_pressure;Samples;Min_cycle;Max_cycle;Signal;HPM_P1;HPM_P2
2022/06/12 00:00:57;;;;;;;2.38;0.93;;;13.60;99.90;;;;;;5075873;28;20044;-75
2022/06/12 00:03:25;;;;;;;1.17;0.55;;;13.60;99.90;;;;;;5075816;28;20048;-75
2022/06/12 00:05:54;;;;;;;1.13;0.63;;;13.60;99.90;;;;;;5075293;28;20036;-75
2022/06/12 00:08:20;;;;;;;1.45;0.63;;;13.50;99.90;;;;;;5075672;28;20384;-75
2022/06/12 00:10:49;;;;;;;1.25;0.80;;;13.50;99.90;;;;;;5075751;28;20138;-75
2022/06/12 00:13:19;;;;;;;1.55;0.70;;;13.50;99.90;;;;;;5058913;28;20051;-75
2022/06/12 00:15:45;;;;;;;0.47;0.40;;;13.50;99.90;;;;;;5058878;28;20044;-75
2022/06/12 00:18:11;;;;;;;5.15;0.70;;;13.50;99.90;;;;;;5075531;28;20097;-75
2022/06/12 00:20:37;;;;;;;3.50;0.88;;;13.40;99.90;;;;;;5059158;28;20119;-75
2022/06/12 00:23:09;;;;;;;2.30;1.02;;;13.40;99.90;;;;;;5075826;28;20146;-75
2022/06/12 00:25:35;;;;;;;2.60;0.70;;;13.40;99.90;;;;;;5075316;28;20044;-75
2022/06/12 00:28:01;;;;;;;2.67;0.68;;;13.40;99.90;;;;;;5075469;28;20407;-75
2022/06/12 00:30:26;;;;;;;4.22;0.60;;;13.40;99.90;;;;;;5058664;28;20036;-75
2022/06/12 00:32:54;;;;;;;1.67;0.60;;;13.40;99.90;;;;;;5075651;28;20042;-75
2022/06/12 00:35:29;;;;;;;1.48;0.55;;;13.30;99.90;;;;;;5058621;28;20051;-75
2022/06/12 00:37:55;;;;;;;0.90;0.40;;;13.40;99.90;;;;;;5058916;28;20139;-75
2022/06/12 00:40:21;;;;;;;0.45;0.45;;;13.30;99.90;;;;;;5058505;28;20122;-75
2022/06/12 00:42:51;;;;;;;3.08;0.75;;;13.30;99.90;;;;;;5058613;28;20484;-75
2022/06/12 00:45:46;;;;;;;2.05;0.60;;;13.30;99.90;;;;;;5075162;28;20468;-75
2022/06/12 00:48:18;;;;;;;0.93;0.60;;;13.30;99.90;;;;;;5058253;28;20048;-75
2022/06/12 00:51:11;;;;;;;1.55;0.65;;;13.30;99.90;;;;;;5075068;28;20051;-75
2022/06/12 00:53:53;;;;;;;2.47;0.70;;;13.30;99.90;;;;;;5058305;28;20043;-75
2022/06/12 00:56:24;;;;;;;5.15;1.13;;;13.30;99.90;;;;;;5075116;28;20392;-75
2022/06/12 00:58:54;;;;;;;1.25;0.82;;;13.30;99.90;;;;;;5074869;28;20040;-75
2022/06/12 01:01:42;;;;;;;2.35;0.60;;;13.20;99.90;;;;;;5075149;28;20406;-75
2022/06/12 01:06:59;;;;;;;3.35;0.85;;;13.40;99.90;;;;;;5074970;28;20197;-75
2022/06/12 01:09:30;;;;;;;1.95;0.75;;;13.50;99.90;;;;;;5074960;28;20044;-75
2022/06/12 01:11:58;;;;;;;1.00;0.50;;;13.20;99.90;;;;;;5074867;28;20089;-75
2022/06/12 01:14:30;;;;;;;3.95;1.15;;;13.10;99.90;;;;;;5058210;28;20040;-75
2022/06/12 01:16:57;;;;;;;3.00;0.70;;;13.40;99.90;;;;;;5074973;28;20073;-75
2022/06/12 01:19:38;;;;;;;1.60;0.60;;;13.40;99.90;;;;;;5074063;28;20048;-75
2022/06/12 01:22:21;;;;;;;1.00;0.68;;;13.10;99.90;;;;;;5074601;28;20075;-75
2022/06/12 01:25:05;;;;;;;2.88;0.88;;;13.10;99.90;;;;;;5074558;28;20130;-76
2022/06/12 01:27:34;;;;;;;0.93;0.52;;;13.10;99.90;;;;;;5057848;28;20036;-75
2022/06/12 01:30:06;;;;;;;2.20;0.90;;;13.10;99.90;;;;;;5074947;28;20479;-75
2022/06/12 01:32:40;;;;;;;1.08;0.65;;;13.10;99.90;;;;;;5058350;28;20035;-75
2022/06/12 01:35:27;;;;;;;1.40;0.98;;;13.10;99.90;;;;;;5057954;28;20107;-76
2022/06/12 01:38:02;;;;;;;2.10;0.95;;;13.00;99.90;;;;;;5074454;28;20040;-75
2022/06/12 01:40:45;;;;;;;5.50;1.13;;;12.90;99.90;;;;;;5074700;28;20039;-75
2022/06/12 01:43:24;;;;;;;6.30;1.27;;;13.00;99.90;;;;;;5058110;28;20126;-75
2022/06/12 01:45:49;;;;;;;3.08;0.70;;;12.90;99.90;;;;;;5074460;28;20036;-75
2022/06/12 01:48:51;;;;;;;4.88;0.90;;;12.90;99.90;;;;;;5070908;28;20052;-75
2022/06/12 01:51:28;;;;;;;1.70;0.80;;;12.90;99.90;;;;;;5071093;28;20080;-75
2022/06/12 01:54:06;;;;;;;5.15;1.25;;;12.90;99.90;;;;;;5071193;28;20042;-75
2022/06/12 01:57:05;;;;;;;4.78;1.25;;;12.90;99.90;;;;;;5071324;28;20488;-75
2022/06/12 01:59:38;;;;;;;1.67;0.73;;;12.90;99.90;;;;;;5071243;28;20055;-75
2022/06/12 02:02:10;;;;;;;3.90;1.00;;;12.90;99.90;;;;;;5071151;28;20452;-75
2022/06/12 02:04:54;;;;;;;0.63;0.60;;;12.80;99.90;;;;;;5054290;28;20053;-75
2022/06/12 02:07:47;;;;;;;4.00;1.05;;;12.80;99.90;;;;;;5070957;28;20113;-75
2022/06/12 02:10:27;;;;;;;3.25;1.00;;;12.80;99.90;;;;;;5059035;28;20080;-75
2022/06/12 02:13:11;;;;;;;4.43;1.00;;;;;;;;;;5070701;28;20056;-76
2022/06/12 02:15:40;;;;;;;4.85;1.08;;;;;;;;;;5070688;28;20423;-75
2022/06/12 02:18:25;;;;;;;1.42;0.70;;;;;;;;;;5070642;28;20040;-75
2022/06/12 02:20:55;;;;;;;1.75;1.00;;;;;;;;;;5053959;28;20095;-75
2022/06/12 02:23:27;;;;;;;2.15;0.80;;;;;;;;;;5054294;28;20086;-74
2022/06/12 02:25:55;;;;;;;0.70;0.60;;;;;;;;;;5070751;28;20472;-75
2022/06/12 02:28:24;;;;;;;2.67;1.15;;;;;;;;;;5070461;28;20088;-75
2022/06/12 02:30:54;;;;;;;2.88;1.10;;;;;;;;;;5073631;28;20045;-75
2022/06/12 02:33:25;;;;;;;2.53;1.25;;;;;;;;;;5074395;28;20078;-75
2022/06/12 02:35:53;;;;;;;1.48;0.90;;;;;;;;;;5057520;28;20052;-75
2022/06/12 02:38:22;;;;;;;4.63;0.82;;;;;;;;;;5074193;28;20158;-75
2022/06/12 02:40:51;;;;;;;3.38;0.77;;;;;;;;;;5057663;28;20044;-75
2022/06/12 02:43:19;;;;;;;1.20;0.70;;;;;;;;;;5074280;28;20099;-75
2022/06/12 02:45:48;;;;;;;1.42;0.70;;;;;;;;;;5074135;28;20075;-75
2022/06/12 02:48:14;;;;;;;1.02;0.60;;;;;;;;;;5073920;28;20057;-75
2022/06/12 02:50:48;;;;;;;3.25;0.88;;;;;;;;;;5057594;28;20411;-75
2022/06/12 02:53:21;;;;;;;5.97;1.05;;;;;;;;;;5057429;28;20048;-75
2022/06/12 02:55:54;;;;;;;2.53;1.23;;;;;;;;;;5074048;28;20045;-77
2022/06/12 02:58:20;;;;;;;0.95;0.70;;;;;;;;;;5057531;28;20098;-75
2022/06/12 03:00:51;;;;;;;5.07;1.25;;;;;;;;;;5073999;28;20040;-76
2022/06/12 03:03:29;;;;;;;1.30;0.60;;;;;;;;;;5073765;28;20044;-75
2022/06/12 03:05:57;;;;;;;1.30;0.65;;;;;;;;;;5073672;28;20044;-75
2022/06/12 03:08:24;;;;;;;0.65;0.57;;;;;;;;;;5056760;28;20076;-75
2022/06/12 03:10:56;;;;;;;0.88;0.70;;;;;;;;;;5073482;28;20044;-75
2022/06/12 03:13:25;;;;;;;2.35;0.60;;;;;;;;;;5073481;28;20123;-75
2022/06/12 03:15:54;;;;;;;3.33;1.05;;;;;;;;;;5073579;28;20143;-75
2022/06/12 03:18:22;;;;;;;0.85;0.80;;;;;;;;;;5057148;28;20103;-75
2022/06/12 03:20:54;;;;;;;6.55;1.08;;;;;;;;;;5056930;28;20079;-75
2022/06/12 03:23:33;;;;;;;5.93;1.10;;;;;;;;;;5073641;28;20050;-75
2022/06/12 03:26:00;;;;;;;5.35;0.80;;;;;;;;;;5073125;28;20040;-75
2022/06/12 03:28:29;;;;;;;2.92;1.20;;;;;;;;;;5073155;28;20102;-75
2022/06/12 03:31:15;;;;;;;0.77;0.70;;;;;;;;;;5073002;28;20142;-75
2022/06/12 03:33:51;;;;;;;1.33;0.65;;;;;;;;;;5055759;28;20044;-75
2022/06/12 03:36:38;;;;;;;3.70;0.80;;;;;;;;;;5073281;28;20094;-76
2022/06/12 03:39:15;;;;;;;1.60;0.93;;;;;;;;;;5073088;28;20040;-75
2022/06/12 03:41:52;;;;;;;1.58;0.75;;;;;;;;;;5072460;28;20037;-75
2022/06/12 03:44:22;;;;;;;4.15;1.42;;;;;;;;;;5073287;28;20044;-75
2022/06/12 03:47:06;;;;;;;1.30;0.68;;;;;;;;;;5073121;28;20086;-75
2022/06/12 03:49:34;;;;;;;1.55;0.80;;;;;;;;;;5073003;28;20076;-75
2022/06/12 03:52:14;;;;;;;2.08;0.70;;;;;;;;;;5073197;28;20039;-75
2022/06/12 03:54:48;;;;;;;3.38;0.90;;;;;;;;;;5056270;28;20041;-75
2022/06/12 04:00:09;;;;;;;1.73;0.90;;;;;;;;;;5072608;28;20106;-75
2022/06/12 04:02:36;;;;;;;1.25;0.73;;;;;;;;;;5072405;28;20128;-75
2022/06/12 04:05:02;;;;;;;6.43;0.88;;;;;;;;;;5072708;28;20408;-75
2022/06/12 04:07:30;;;;;;;4.10;1.00;;;;;;;;;;5072479;28;20041;-75
2022/06/12 04:09:57;;;;;;;1.45;0.80;;;;;;;;;;5072407;28;20128;-76
2022/06/12 04:12:25;;;;;;;2.47;0.90;;;;;;;;;;5055926;28;20127;-75
2022/06/12 04:15:07;;;;;;;2.05;0.75;;;;;;;;;;5055620;28;20044;-75
2022/06/12 04:17:34;;;;;;;1.45;0.82;;;;;;;;;;5072222;28;20041;-75
2022/06/12 04:20:00;;;;;;;2.55;0.85;;;;;;;;;;5072100;28;20033;-75
2022/06/12 04:22:46;;;;;;;4.82;0.88;;;;;;;;;;5055806;28;20059;-75
2022/06/12 04:25:21;;;;;;;2.65;0.85;;;;;;;;;;5052039;28;20461;-76
2022/06/12 04:27:47;;;;;;;4.22;1.27;;;;;;;;;;5072227;28;20098;-75
2022/06/12 04:30:22;;;;;;;6.18;1.05;;;;;;;;;;5071902;28;20040;-75
2022/06/12 04:32:49;;;;;;;1.42;0.80;;;;;;;;;;5071928;28;20047;-75
2022/06/12 04:35:16;;;;;;;3.15;0.93;;;;;;;;;;5071813;28;20419;-76
2022/06/12 04:37:42;;;;;;;2.20;1.20;;;;;;;;;;5055771;28;20044;-76
2022/06/12 04:40:14;;;;;;;2.75;0.80;;;;;;;;;;5072151;28;20045;-75
2022/06/12 04:42:40;;;;;;;0.82;0.50;;;;;;;;;;5071924;28;20044;-76
2022/06/12 04:45:06;;;;;;;1.40;0.70;;;;;;;;;;5055641;28;20484;-76
2022/06/12 04:47:32;;;;;;;1.95;0.95;;;;;;;;;;5072052;28;20492;-75
2022/06/12 04:49:59;;;;;;;1.60;0.77;;;;;;;;;;5072021;28;20110;-75
2022/06/12 04:52:26;;;;;;;5.82;1.17;;;;;;;;;;5055072;28;20141;-75
2022/06/12 04:54:52;;;;;;;5.90;0.80;;;;;;;;;;5071685;28;20047;-76
2022/06/12 04:57:19;;;;;;;2.85;1.00;;;;;;;;;;5071799;28;20041;-75
2022/06/12 04:59:45;;;;;;;5.80;1.20;;;;;;;;;;5055181;28;20549;-75
2022/06/12 05:02:12;;;;;;;2.05;0.73;;;;;;;;;;5071751;28;20071;-76
2022/06/12 05:04:38;;;;;;;1.60;1.02;;;13.70;99.90;;;;;;5054979;28;20051;-76
2022/06/12 05:07:05;;;;;;;3.58;0.95;;;14.10;99.90;;;;;;5071695;28;20078;-76
2022/06/12 05:09:33;;;;;;;1.83;0.65;;;13.90;99.90;;;;;;5071817;28;20063;-76
2022/06/12 05:11:59;;;;;;;3.75;0.93;;;13.90;99.90;;;;;;5071532;28;20055;-75
2022/06/12 05:14:25;;;;;;;1.95;0.98;;;13.90;99.90;;;;;;5071567;28;20037;-76
2022/06/12 05:16:56;;;;;;;2.42;0.85;;;14.10;99.90;;;;;;5054873;28;20044;-76
2022/06/12 05:19:28;;;;;;;1.55;1.25;;;14.10;99.90;;;;;;5071477;28;20053;-75
2022/06/12 05:21:54;;;;;;;1.60;0.85;;;14.20;99.90;;;;;;5071208;28;20085;-76
2022/06/12 05:24:20;;;;;;;2.65;0.95;;;14.20;99.90;;;;;;5054433;28;20435;-75
2022/06/12 05:26:48;;;;;;;1.17;0.45;;;14.30;99.90;;;;;;5071215;28;20045;-75
2022/06/12 05:29:19;;;;;;;1.65;0.80;;;14.40;99.90;;;;;;5070974;28;20170;-76
2022/06/12 05:31:46;;;;;;;3.30;0.98;;;14.60;99.90;;;;;;5071343;28;20075;-75
2022/06/12 05:34:14;;;;;;;2.13;1.15;;;14.60;99.90;;;;;;5071450;28;20032;-76
2022/06/12 05:36:39;;;;;;;5.45;1.35;;;14.70;99.90;;;;;;5070997;28;20040;-76
2022/06/12 05:39:05;;;;;;;3.35;0.50;;;14.80;99.90;;;;;;5054349;28;20461;-76
2022/06/12 05:41:31;;;;;;;2.30;1.02;;;15.00;99.90;;;;;;5054371;28;20142;-76
2022/06/12 05:43:57;;;;;;;4.25;1.00;;;15.20;99.90;;;;;;5070883;28;20050;-76
2022/06/12 05:46:23;;;;;;;1.67;0.85;;;;;;;;;;5054268;28;20056;-76
2022/06/12 05:48:49;;;;;;;4.03;0.60;;;15.40;99.90;;;;;;5070767;28;20091;-75
2022/06/12 05:51:17;;;;;;;2.20;1.00;;;15.80;99.90;;;;;;5070811;28;20084;-76
2022/06/12 05:53:43;;;;;;;3.47;0.47;;;15.50;99.90;;;;;;5054503;28;20127;-76
2022/06/12 05:56:12;;;;;;;2.22;0.90;;;15.60;99.90;;;;;;5054142;28;20045;-76
2022/06/12 05:58:38;;;;;;;3.63;0.85;;;15.70;99.90;;;;;;5071163;28;20496;-76
2022/06/12 06:01:06;;;;;;;4.20;1.10;;;15.70;99.90;;;;;;5071098;28;20087;-76
2022/06/12 06:03:33;;;;;;;1.50;1.00;;;15.70;99.90;;;;;;5054234;28;20036;-76
2022/06/12 06:05:59;;;;;;;5.13;0.90;;;15.60;99.90;;;;;;5074538;28;20531;-76
2022/06/12 06:08:25;;;;;;;4.60;1.35;;;15.70;99.90;;;;;;5074913;28;20037;-76
2022/06/12 06:10:51;;;;;;;4.03;1.17;;;15.70;99.90;;;;;;5058071;28;20039;-76
2022/06/12 06:13:16;;;;;;;6.35;0.98;;;15.90;99.90;;;;;;5075021;28;20135;-78
2022/06/12 06:15:43;;;;;;;4.03;0.85;;;16.00;99.90;;;;;;5074651;28;20161;-77
2022/06/12 06:18:09;;;;;;;5.22;1.02;;;16.10;99.90;;;;;;5075043;28;20123;-77
2022/06/12 06:20:38;;;;;;;3.38;1.05;;;16.20;99.90;;;;;;5057819;28;20194;-77
2022/06/12 06:23:05;;;;;;;5.70;1.35;;;16.30;99.90;;;;;;5074711;28;20040;-76
2022/06/12 06:25:31;;;;;;;3.47;1.30;;;16.30;99.90;;;;;;5058038;28;20075;-77
2022/06/12 06:27:58;;;;;;;3.72;1.02;;;16.30;99.90;;;;;;5074156;28;20367;-77
2022/06/12 06:30:25;;;;;;;2.58;0.88;;;16.40;99.90;;;;;;5074743;28;20105;-76
2022/06/12 06:32:51;;;;;;;2.75;1.02;;;16.50;99.90;;;;;;5074493;28;20036;-77
2022/06/12 06:35:18;;;;;;;2.45;0.50;;;16.60;99.90;;;;;;5073883;28;20036;-77
2022/06/12 06:37:44;;;;;;;4.45;1.05;;;16.60;99.90;;;;;;5074094;28;20036;-77
2022/06/12 06:40:13;;;;;;;4.88;1.30;;;16.80;99.90;;;;;;5074116;28;20038;-77
2022/06/12 06:42:38;;;;;;;3.78;1.50;;;16.90;99.90;;;;;;5074065;28;20044;-78
2022/06/12 06:47:49;;;;;;;6.05;1.30;;;17.10;99.90;;;;;;5073788;28;20059;-76
2022/06/12 06:50:17;;;;;;;2.80;1.17;;;17.20;99.90;;;;;;5074376;28;20438;-77
2022/06/12 06:52:43;;;;;;;4.38;1.27;;;17.30;99.90;;;;;;5074310;28;20044;-78
2022/06/12 06:55:10;;;;;;;3.42;1.30;;;17.40;99.90;;;;;;5074178;28;20502;-77
2022/06/12 06:57:38;;;;;;;3.28;1.10;;;17.50;99.90;;;;;;5041082;28;20078;-76
2022/06/12 07:00:05;;;;;;;2.53;1.52;;;17.60;99.90;;;;;;5073929;28;20044;-76
2022/06/12 07:02:31;;;;;;;5.60;1.25;;;17.70;99.90;;;;;;5073897;28;20040;-77
2022/06/12 07:04:58;;;;;;;7.95;1.20;;;17.80;99.90;;;;;;5057272;28;20048;-77
2022/06/12 07:07:24;;;;;;;2.03;0.90;;;17.90;99.90;;;;;;5057399;28;20115;-76
2022/06/12 07:09:49;;;;;;;7.35;1.25;;;17.90;99.90;;;;;;5073802;28;20045;-76
2022/06/12 07:12:15;;;;;;;7.55;1.65;;;18.00;99.90;;;;;;5057185;28;20441;-78
2022/06/12 07:14:41;;;;;;;3.70;1.48;;;18.10;99.90;;;;;;5073328;28;20476;-78
2022/06/12 07:17:07;;;;;;;2.00;0.80;;;18.10;99.90;;;;;;5073867;28;20040;-77
2022/06/12 07:19:33;;;;;;;7.15;1.25;;;18.30;99.90;;;;;;5040482;28;20487;-77
2022/06/12 07:21:59;;;;;;;4.82;1.15;;;18.30;99.90;;;;;;5056612;28;20055;-77
2022/06/12 07:24:25;;;;;;;3.97;1.35;;;18.40;99.90;;;;;;5056492;28;20044;-76
2022/06/12 07:26:51;;;;;;;2.30;0.93;;;18.50;99.90;;;;;;5073502;28;20127;-74
2022/06/12 07:29:19;;;;;;;1.98;1.20;;;18.50;99.90;;;;;;5073231;28;20448;-75
2022/06/12 07:31:45;;;;;;;2.05;1.02;;;18.60;99.90;;;;;;5073360;28;20036;-78
2022/06/12 07:34:12;;;;;;;3.38;0.75;;;18.70;99.90;;;;;;5056836;28;20039;-77
2022/06/12 07:36:39;;;;;;;6.18;1.10;;;18.80;99.90;;;;;;5073886;28;20433;-77
2022/06/12 07:39:13;;;;;;;4.32;1.40;;;18.80;99.90;;;;;;5073094;28;20083;-77
2022/06/12 07:41:39;;;;;;;3.47;1.20;;;18.90;99.90;;;;;;5073209;28;20469;-78
2022/06/12 07:44:06;;;;;;;1.60;0.75;;;19.00;99.90;;;;;;5073485;28;20076;-79
2022/06/12 07:46:32;;;;;;;5.57;1.17;;;19.00;99.90;;;;;;5073138;28;20045;-78
2022/06/12 07:48:58;;;;;;;1.70;0.90;;;19.20;99.90;;;;;;5072941;28;20568;-76
2022/06/12 07:51:24;;;;;;;1.77;0.90;;;19.20;99.90;;;;;;5073504;28;20492;-76
2022/06/12 07:53:51;;;;;;;5.65;0.95;;;19.30;99.90;;;;;;5072833;28;20032;-76
2022/06/12 07:56:19;;;;;;;3.78;1.13;;;19.40;99.90;;;;;;5072981;28;20480;-75
2022/06/12 07:58:45;;;;;;;5.43;1.48;;;19.50;99.90;;;;;;5056479;28;20044;-75
2022/06/12 08:01:14;;;;;;;3.10;1.13;;;19.60;99.90;;;;;;5072796;28;20052;-76
2022/06/12 08:03:40;;;;;;;3.65;1.00;;;19.70;99.90;;;;;;5056274;28;20045;-75
2022/06/12 08:06:06;;;;;;;4.32;1.17;;;19.70;99.90;;;;;;5056196;28;20055;-74
2022/06/12 08:08:32;;;;;;;5.75;1.52;;;19.80;99.90;;;;;;5072747;28;20127;-76
2022/06/12 08:10:59;;;;;;;3.50;1.20;;;19.90;99.90;;;;;;5056030;28;20115;-76
2022/06/12 08:13:25;;;;;;;3.10;1.08;;;20.00;99.90;;;;;;5072769;28;20138;-74
2022/06/12 08:15:52;;;;;;;2.05;1.13;;;20.10;99.90;;;;;;5072533;28;20083;-75
2022/06/12 08:18:19;;;;;;;3.58;1.02;;;20.20;99.90;;;;;;5072648;28;20036;-74
2022/06/12 08:20:49;;;;;;;4.47;1.10;;;20.40;99.90;;;;;;5072227;28;20044;-75
2022/06/12 08:23:26;;;;;;;3.33;1.10;;;20.40;99.90;;;;;;5072371;28;20072;-74
2022/06/12 08:26:18;;;;;;;6.28;1.42;;;20.50;99.90;;;;;;5072061;28;20082;-74
2022/06/12 08:28:58;;;;;;;1.73;0.90;;;20.60;99.90;;;;;;5072034;28;20482;-73
2022/06/12 08:31:27;;;;;;;5.90;1.40;;;20.60;99.90;;;;;;5073404;28;20032;-74
2022/06/12 08:33:56;;;;;;;3.60;1.08;;;20.60;99.90;;;;;;5071964;28;20044;-74
2022/06/12 08:36:22;;;;;;;4.05;1.40;;;20.70;99.90;;;;;;5071987;28;20040;-73
2022/06/12 08:38:49;;;;;;;5.10;1.08;;;20.70;99.90;;;;;;5071789;28;20040;-73
2022/06/12 08:41:22;;;;;;;2.75;1.08;;;20.70;99.90;;;;;;5055041;28;20083;-73
2022/06/12 08:44:00;;;;;;;1.65;0.68;;;20.70;99.90;;;;;;5071790;28;20071;-75
2022/06/12 08:46:54;;;;;;;2.90;1.05;;;20.90;99.90;;;;;;5071879;28;20441;-74
2022/06/12 08:49:29;;;;;;;4.60;0.93;;;20.90;99.90;;;;;;5054908;28;20048;-74
2022/06/12 08:52:03;;;;;;;2.67;0.82;;;20.80;99.90;;;;;;5071689;28;20247;-74
2022/06/12 08:55:07;;;;;;;1.15;0.70;;;20.90;99.90;;;;;;5072124;28;20548;-74
2022/06/12 08:57:53;;;;;;;6.20;1.30;;;20.90;99.90;;;;;;5071604;28;20044;-76
2022/06/12 09:00:25;;;;;;;3.38;1.02;;;21.20;99.90;;;;;;5055284;28;20097;-77
2022/06/12 09:02:51;;;;;;;4.90;0.98;;;21.40;99.90;;;;;;5071559;28;20051;-77
2022/06/12 09:05:21;;;;;;;2.92;0.88;;;21.40;99.90;;;;;;5071828;28;20037;-76
2022/06/12 09:07:58;;;;;;;4.50;0.88;;;21.40;99.90;;;;;;5071637;28;20047;-77
2022/06/12 09:10:44;;;;;;;3.58;1.13;;;21.20;99.90;;;;;;5072072;28;20557;-77
2022/06/12 09:13:17;;;;;;;3.45;1.17;;;21.10;99.90;;;;;;5071561;28;20074;-76
2022/06/12 09:16:09;;;;;;;2.45;1.00;;;20.90;99.90;;;;;;5071725;28;20036;-76
2022/06/12 09:19:02;;;;;;;3.30;1.52;;;21.00;99.90;;;;;;5071833;28;20172;-77
2022/06/12 09:21:35;;;;;;;4.30;1.13;;;21.00;99.90;;;;;;5054908;28;20086;-74
2022/06/12 09:24:18;;;;;;;2.47;1.30;;;21.10;99.90;;;;;;5054868;28;20044;-75
2022/06/12 09:27:06;;;;;;;3.67;0.90;;;21.10;99.90;;;;;;5071139;28;20048;-75
2022/06/12 09:30:02;;;;;;;7.82;1.00;;;21.20;99.90;;;;;;5070868;28;20036;-74
2022/06/12 09:33:07;;;;;;;1.25;1.10;;;21.30;99.90;;;;;;5071340;28;20052;-74
2022/06/12 09:35:44;;;;;;;5.65;1.25;;;21.40;99.90;;;;;;5071518;28;20081;-74
2022/06/12 09:38:29;;;;;;;2.50;1.02;;;21.50;99.90;;;;;;5071594;28;20076;-75
2022/06/12 09:41:28;;;;;;;1.70;0.70;;;21.40;99.90;;;;;;5074530;28;20117;-76
2022/06/12 09:44:16;;;;;;;3.60;0.90;;;21.10;99.90;;;;;;5075054;28;20049;-76
2022/06/12 09:47:08;;;;;;;3.95;1.40;;;20.90;99.90;;;;;;5058309;28;20055;-75
2022/06/12 09:49:46;;;;;;;2.03;1.00;;;20.90;99.90;;;;;;5054786;28;20056;-76
2022/06/12 09:52:25;;;;;;;3.08;1.15;;;20.80;99.90;;;;;;5054919;28;20086;-76
2022/06/12 09:54:55;;;;;;;3.15;1.10;;;21.10;99.90;;;;;;5054865;28;20063;-76
2022/06/12 09:57:30;;;;;;;1.00;0.70;;;21.20;99.90;;;;;;5054906;28;20041;-75
2022/06/12 10:00:10;;;;;;;3.20;1.05;;;21.40;99.90;;;;;;5054659;28;20373;-76
2022/06/12 10:02:47;;;;;;;3.75;0.90;;;21.20;99.90;;;;;;5055106;28;20128;-75
2022/06/12 10:05:22;;;;;;;3.47;0.90;;;21.00;99.90;;;;;;5054896;28;20049;-78
2022/06/12 10:08:02;;;;;;;3.38;0.88;;;21.20;99.90;;;;;;5054943;28;20136;-78
2022/06/12 10:10:36;;;;;;;3.10;0.95;;;21.40;99.90;;;;;;5055071;28;20049;-75
2022/06/12 10:13:07;;;;;;;9.30;1.25;;;21.50;99.90;;;;;;5055260;28;20179;-75
2022/06/12 10:15:38;;;;;;;1.80;0.68;;;20.00;99.90;;;;;;5054928;28;20069;-75
2022/06/12 10:18:09;;;;;;;2.55;1.05;;;21.60;99.90;;;;;;5054745;28;20094;-78
2022/06/12 10:20:43;;;;;;;1.77;0.90;;;21.60;99.90;;;;;;5054497;28;20052;-74
2022/06/12 10:23:09;;;;;;;1.17;0.70;;;21.50;99.90;;;;;;5054939;28;20086;-77
2022/06/12 10:25:38;;;;;;;1.58;0.80;;;21.70;99.90;;;;;;5037996;28;20052;-75
2022/06/12 10:28:19;;;;;;;3.00;0.63;;;21.80;99.90;;;;;;5054604;28;20075;-80
2022/06/12 10:30:56;;;;;;;3.42;0.95;;;21.90;99.90;;;;;;5054499;28;20048;-80
2022/06/12 10:33:23;;;;;;;2.80;0.82;;;21.90;99.90;;;;;;5054490;28;20052;-77
2022/06/12 10:35:56;;;;;;;0.88;0.70;;;21.90;99.90;;;;;;5038049;28;20476;-77
2022/06/12 10:38:24;;;;;;;2.53;1.20;;;21.80;99.90;;;;;;5037679;28;20087;-76
2022/06/12 10:41:03;;;;;;;1.17;0.70;;;21.70;99.90;;;;;;5054314;28;20041;-77
2022/06/12 10:43:31;;;;;;;0.98;0.50;;;21.50;99.90;;;;;;5054682;28;20049;-77
2022/06/12 10:46:15;;;;;;;1.88;0.80;;;21.40;99.90;;;;;;5054170;28;20048;-78
2022/06/12 10:48:42;;;;;;;2.78;0.90;;;21.40;99.90;;;;;;5052920;28;20049;-77
2022/06/12 10:51:17;;;;;;;2.83;0.52;;;21.40;99.90;;;;;;5056995;28;20029;-76
2022/06/12 10:53:43;;;;;;;0.50;0.50;;;21.40;99.90;;;;;;5074238;28;20036;-76
2022/06/12 10:56:27;;;;;;;1.35;0.63;;;21.40;99.90;;;;;;5057335;28;20043;-77
2022/06/12 10:59:10;;;;;;;1.08;0.50;;;21.50;99.90;;;;;;5074220;28;20067;-77
2022/06/12 11:01:49;;;;;;;1.42;0.68;;;21.60;99.90;;;;;;5057403;28;20508;-76
2022/06/12 11:04:23;;;;;;;3.90;1.02;;;21.40;99.90;;;;;;5073805;28;20472;-76
2022/06/12 11:07:21;;;;;;;1.20;0.50;;;21.30;99.90;;;;;;5073582;28;20044;-75
2022/06/12 11:10:05;;;;;;;1.08;0.60;;;21.30;99.90;;;;;;5031769;28;20102;-76
2022/06/12 11:13:02;;;;;;;2.28;0.63;;;21.60;99.90;;;;;;5057205;28;20044;-76
2022/06/12 11:15:30;;;;;;;1.05;0.43;;;21.60;99.90;;;;;;5056784;28;20412;-76
2022/06/12 11:18:21;;;;;;;2.08;0.52;;;21.80;99.90;;;;;;5073358;28;20037;-77
2022/06/12 11:21:08;;;;;;;1.55;0.88;;;21.90;99.90;;;;;;5073697;28;20131;-78
2022/06/12 11:23:57;;;;;;;2.00;0.75;;;21.50;99.90;;;;;;5073549;28;20052;-75
2022/06/12 11:26:54;;;;;;;0.82;0.60;;;21.30;99.90;;;;;;5073128;28;20110;-77
2022/06/12 11:29:58;;;;;;;0.75;0.75;;;21.30;99.90;;;;;;5056580;28;20400;-76
2022/06/12 11:32:57;;;;;;;1.13;0.65;;;21.40;99.90;;;;;;5073572;28;20040;-75
2022/06/12 11:35:42;;;;;;;2.40;0.65;;;21.60;99.90;;;;;;5073830;28;20617;-75
2022/06/12 11:38:26;;;;;;;2.05;0.85;;;21.80;99.90;;;;;;5073323;28;20112;-74
2022/06/12 11:41:13;;;;;;;1.83;0.60;;;21.80;99.90;;;;;;5056992;28;20047;-77
2022/06/12 11:44:24;;;;;;;0.50;0.45;;;21.90;99.90;;;;;;5073431;28;20542;-77
2022/06/12 11:47:31;;;;;;;1.67;0.70;;;21.80;99.90;;;;;;4957878;28;20150;-76
2022/06/12 11:50:16;;;;;;;1.30;0.50;;;22.00;99.90;;;;;;5089108;28;20052;-75
2022/06/12 11:52:51;;;;;;;2.38;0.80;;;22.00;99.90;;;;;;5073782;28;20041;-75
2022/06/12 11:55:35;;;;;;;0.95;0.52;;;22.20;99.90;;;;;;5057270;28;20036;-76
2022/06/12 11:58:40;;;;;;;2.20;0.77;;;22.30;99.90;;;;;;5073437;28;20361;-74
2022/06/12 12:01:23;;;;;;;0.95;0.80;;;22.30;99.90;;;;;;5073670;28;20483;-76
2022/06/12 12:04:22;;;;;;;0.47;0.30;;;22.20;99.90;;;;;;5072814;28;20115;-76
2022/06/12 12:07:08;;;;;;;2.08;0.93;;;22.20;99.90;;;;;;5063236;28;20397;-76
2022/06/12 12:09:38;;;;;;;2.25;0.60;;;22.10;99.90;;;;;;5056903;28;20070;-76
2022/06/12 12:12:17;;;;;;;1.35;0.40;;;22.20;99.90;;;;;;5073455;28;20049;-75
2022/06/12 12:14:45;;;;;;;1.20;0.60;;;22.30;99.90;;;;;;5056675;28;20036;-78
2022/06/12 12:17:15;;;;;;;1.08;0.40;;;22.10;99.90;;;;;;5057061;28;20044;-77
2022/06/12 12:19:48;;;;;;;1.40;0.40;;;22.00;99.90;;;;;;5073217;28;20111;-76
2022/06/12 12:22:42;;;;;;;0.60;0.50;;;21.70;99.90;;;;;;5072953;28;20052;-79
2022/06/12 12:25:20;;;;;;;0.90;0.50;;;21.80;99.90;;;;;;5072930;28;20040;-77
2022/06/12 12:27:48;;;;;;;0.47;0.32;;;;;;;;;;5073231;28;20095;-78
2022/06/12 12:30:34;;;;;;;1.15;0.57;;;;;;;;;;5056203;28;20036;-77
2022/06/12 12:33:02;;;;;;;3.20;0.65;;;;;;;;;;5073154;28;20032;-76
2022/06/12 12:41:32;;;;;;;1.25;0.80;;;21.60;99.90;;;;;;5072824;28;20400;-76
2022/06/12 12:44:01;;;;;;;1.25;0.50;;;21.70;99.90;;;;;;5054877;28;20052;-77
2022/06/12 12:46:45;;;;;;;2.15;0.63;;;21.90;99.90;;;;;;5039167;28;20075;-76
2022/06/12 12:49:43;;;;;;;1.63;0.63;;;22.00;99.90;;;;;;5092977;28;20139;-74
2022/06/12 12:52:20;;;;;;;1.55;0.70;;;21.90;99.90;;;;;;5021591;28;20048;-75
2022/06/12 12:54:53;;;;;;;1.58;0.60;;;21.90;99.90;;;;;;5059321;28;20399;-74
2022/06/12 12:57:41;;;;;;;2.65;1.13;;;21.70;99.90;;;;;;5075404;28;20140;-73
2022/06/12 13:00:20;;;;;;;2.08;0.80;;;20.60;99.90;;;;;;5075265;28;20615;-74
2022/06/12 13:02:54;;;;;;;2.20;0.60;;;21.20;99.90;;;;;;5075660;28;20491;-74
2022/06/12 13:05:25;;;;;;;1.40;0.75;;;21.10;99.90;;;;;;5075963;28;20114;-76
2022/06/12 13:08:18;;;;;;;2.28;0.93;;;21.00;99.90;;;;;;5075735;28;20039;-75
2022/06/12 13:10:49;;;;;;;1.27;0.70;;;20.90;99.90;;;;;;5075584;28;20036;-74
2022/06/12 13:13:32;;;;;;;2.03;1.10;;;21.10;99.90;;;;;;5075823;28;20186;-75
2022/06/12 13:16:21;;;;;;;3.78;1.33;;;21.40;99.90;;;;;;5075067;28;20047;-74
2022/06/12 13:19:19;;;;;;;3.67;0.80;;;21.40;99.90;;;;;;5075166;28;20040;-75
2022/06/12 13:21:59;;;;;;;3.20;1.15;;;21.40;99.90;;;;;;5075395;28;20032;-74
2022/06/12 13:24:34;;;;;;;;;;;21.40;99.90;;;;;;5075597;28;20055;-75
2022/06/12 13:27:31;;;;;;;2.17;0.65;;;21.20;99.90;;;;;;5075491;28;20268;-76
2022/06/12 13:29:57;;;;;;;4.47;0.90;;;21.00;99.90;;;;;;5075399;28;20055;-78
2022/06/12 13:32:23;;;;;;;1.58;0.80;;;21.10;99.90;;;;;;5059158;28;20043;-77
2022/06/12 13:35:00;;;;;;;2.13;0.60;;;21.00;99.90;;;;;;5075222;28;20036;-79
2022/06/12 13:37:29;;;;;;;0.65;0.63;;;;;;;;;;5075742;28;20115;-78
2022/06/12 13:39:55;;;;;;;1.33;0.75;;;;;;;;;;5075266;28;20127;-80
2022/06/12 13:42:23;;;;;;;2.63;1.23;;;;;;;;;;5058469;28;20040;-80
2022/06/12 13:44:50;;;;;;;3.40;0.70;;;;;;;;;;5058729;28;20152;-77
2022/06/12 13:47:19;;;;;;;2.10;1.00;;;21.60;99.90;;;;;;5075295;28;20105;-76
2022/06/12 13:50:06;;;;;;;1.55;0.75;;;21.80;99.90;;;;;;5074737;28;20055;-74
2022/06/12 13:52:52;;;;;;;0.70;0.50;;;21.80;99.90;;;;;;5075317;28;20403;-76
2022/06/12 13:55:37;;;;;;;3.05;0.73;;;21.90;99.90;;;;;;5057393;28;20189;-74
2022/06/12 13:58:09;;;;;;;2.22;0.65;;;21.90;99.90;;;;;;5058271;28;20036;-74
2022/06/12 14:00:45;;;;;;;1.67;0.80;;;21.80;99.90;;;;;;5057765;28;20059;-76
2022/06/12 14:03:31;;;;;;;1.30;0.70;;;21.50;99.90;;;;;;5057655;28;20411;-76